sensor_id;sensor_type;location;lat;lon;timestamp;temperature;humidity
28763;DHT22;15918;51.270;6.522;2024-01-30T00:01:13;10.90;68.50
28763;DHT22;15918;51.270;6.522;2024-01-30T00:03:39;10.90;68.60
28763;DHT22;15918;51.270;6.522;2024-01-30T00:06:04;10.90;68.60
28763;DHT22;15918;51.270;6.522;2024-01-30T00:08:30;10.90;69.10
28763;DHT22;15918;51.270;6.522;2024-01-30T00:10:55;10.90;68.40
28763;DHT22;15918;51.270;6.522;2024-01-30T00:13:21;10.90;68.60
28763;DHT22;15918;51.270;6.522;2024-01-30T00:15:47;10.90;68.60
28763;DHT22;15918;51.270;6.522;2024-01-30T00:18:12;10.90;69.20
28763;DHT22;15918;51.270;6.522;2024-01-30T00:20:38;10.90;68.40
28763;DHT22;15918;51.270;6.522;2024-01-30T00:23:03;10.90;68.40
28763;DHT22;15918;51.270;6.522;2024-01-30T00:25:30;10.90;68.50
28763;DHT22;15918;51.270;6.522;2024-01-30T00:27:55;10.90;68.50
28763;DHT22;15918;51.270;6.522;2024-01-30T00:30:21;10.90;68.70
28763;DHT22;15918;51.270;6.522;2024-01-30T00:32:46;10.80;68.60
28763;DHT22;15918;51.270;6.522;2024-01-30T00:35:12;10.90;68.70
28763;DHT22;15918;51.270;6.522;2024-01-30T00:37:38;10.90;68.60
28763;DHT22;15918;51.270;6.522;2024-01-30T00:40:04;10.80;68.50
28763;DHT22;15918;51.270;6.522;2024-01-30T00:42:31;10.90;68.60
28763;DHT22;15918;51.270;6.522;2024-01-30T00:44:57;10.80;68.70
28763;DHT22;15918;51.270;6.522;2024-01-30T00:47:23;10.90;68.70
28763;DHT22;15918;51.270;6.522;2024-01-30T00:49:48;10.80;68.70
28763;DHT22;15918;51.270;6.522;2024-01-30T00:52:15;10.80;68.80
28763;DHT22;15918;51.270;6.522;2024-01-30T00:54:41;10.80;68.70
28763;DHT22;15918;51.270;6.522;2024-01-30T00:57:07;10.80;68.70
28763;DHT22;15918;51.270;6.522;2024-01-30T00:59:32;10.90;68.90
28763;DHT22;15918;51.270;6.522;2024-01-30T01:01:58;10.90;68.90
28763;DHT22;15918;51.270;6.522;2024-01-30T01:04:24;10.80;68.80
28763;DHT22;15918;51.270;6.522;2024-01-30T01:06:52;10.90;68.90
28763;DHT22;15918;51.270;6.522;2024-01-30T01:09:18;10.80;68.80
28763;DHT22;15918;51.270;6.522;2024-01-30T01:11:43;10.80;69.60
28763;DHT22;15918;51.270;6.522;2024-01-30T01:14:09;10.90;68.90
28763;DHT22;15918;51.270;6.522;2024-01-30T01:16:35;10.80;68.90
28763;DHT22;15918;51.270;6.522;2024-01-30T01:19:01;10.80;68.90
28763;DHT22;15918;51.270;6.522;2024-01-30T01:21:27;10.90;69.00
28763;DHT22;15918;51.270;6.522;2024-01-30T01:23:52;10.90;69.10
28763;DHT22;15918;51.270;6.522;2024-01-30T01:26:18;10.80;69.00
28763;DHT22;15918;51.270;6.522;2024-01-30T01:28:43;10.80;69.00
28763;DHT22;15918;51.270;6.522;2024-01-30T01:31:09;10.80;69.00
28763;DHT22;15918;51.270;6.522;2024-01-30T01:33:35;10.80;69.00
28763;DHT22;15918;51.270;6.522;2024-01-30T01:36:02;10.80;69.00
28763;DHT22;15918;51.270;6.522;2024-01-30T01:38:28;10.90;69.10
28763;DHT22;15918;51.270;6.522;2024-01-30T01:40:54;10.80;69.00
28763;DHT22;15918;51.270;6.522;2024-01-30T01:43:19;10.90;69.10
28763;DHT22;15918;51.270;6.522;2024-01-30T01:45:45;10.80;69.00
28763;DHT22;15918;51.270;6.522;2024-01-30T01:48:11;10.80;69.10
28763;DHT22;15918;51.270;6.522;2024-01-30T01:50:38;10.80;69.00
28763;DHT22;15918;51.270;6.522;2024-01-30T01:53:06;10.80;69.00
28763;DHT22;15918;51.270;6.522;2024-01-30T01:55:33;10.90;69.10
28763;DHT22;15918;51.270;6.522;2024-01-30T01:57:59;10.80;69.00
28763;DHT22;15918;51.270;6.522;2024-01-30T02:00:25;10.80;69.00
28763;DHT22;15918;51.270;6.522;2024-01-30T02:02:51;10.80;69.00
28763;DHT22;15918;51.270;6.522;2024-01-30T02:05:19;10.80;69.10
28763;DHT22;15918;51.270;6.522;2024-01-30T02:07:45;10.80;69.10
28763;DHT22;15918;51.270;6.522;2024-01-30T02:10:11;10.80;69.00
28763;DHT22;15918;51.270;6.522;2024-01-30T02:12:36;10.80;69.00
28763;DHT22;15918;51.270;6.522;2024-01-30T02:15:02;10.80;69.00
28763;DHT22;15918;51.270;6.522;2024-01-30T02:17:28;10.80;69.00
28763;DHT22;15918;51.270;6.522;2024-01-30T02:19:54;10.80;69.00
28763;DHT22;15918;51.270;6.522;2024-01-30T02:22:20;10.80;69.00
28763;DHT22;15918;51.270;6.522;2024-01-30T02:24:46;10.80;69.10
28763;DHT22;15918;51.270;6.522;2024-01-30T02:27:12;10.80;69.20
28763;DHT22;15918;51.270;6.522;2024-01-30T02:29:37;10.80;69.20
28763;DHT22;15918;51.270;6.522;2024-01-30T02:32:03;10.80;69.20
28763;DHT22;15918;51.270;6.522;2024-01-30T02:34:29;10.80;69.20
28763;DHT22;15918;51.270;6.522;2024-01-30T02:36:54;10.80;69.20
28763;DHT22;15918;51.270;6.522;2024-01-30T02:39:20;10.80;69.20
28763;DHT22;15918;51.270;6.522;2024-01-30T02:41:45;10.80;69.20
28763;DHT22;15918;51.270;6.522;2024-01-30T02:44:11;10.70;69.10
28763;DHT22;15918;51.270;6.522;2024-01-30T02:46:36;10.80;69.20
28763;DHT22;15918;51.270;6.522;2024-01-30T02:49:02;10.80;69.20
28763;DHT22;15918;51.270;6.522;2024-01-30T02:51:27;10.70;69.10
28763;DHT22;15918;51.270;6.522;2024-01-30T02:53:53;10.70;69.20
28763;DHT22;15918;51.270;6.522;2024-01-30T02:56:19;10.80;69.20
28763;DHT22;15918;51.270;6.522;2024-01-30T02:58:44;10.70;69.20
28763;DHT22;15918;51.270;6.522;2024-01-30T03:01:10;10.70;69.20
28763;DHT22;15918;51.270;6.522;2024-01-30T03:03:35;10.80;69.30
28763;DHT22;15918;51.270;6.522;2024-01-30T03:06:01;10.80;69.20
28763;DHT22;15918;51.270;6.522;2024-01-30T03:08:27;10.70;69.30
28763;DHT22;15918;51.270;6.522;2024-01-30T03:10:53;10.80;69.30
28763;DHT22;15918;51.270;6.522;2024-01-30T03:13:18;10.70;69.20
28763;DHT22;15918;51.270;6.522;2024-01-30T03:15:44;10.70;69.30
28763;DHT22;15918;51.270;6.522;2024-01-30T03:18:10;10.70;69.30
28763;DHT22;15918;51.270;6.522;2024-01-30T03:20:35;10.70;69.30
28763;DHT22;15918;51.270;6.522;2024-01-30T03:23:01;10.80;69.40
28763;DHT22;15918;51.270;6.522;2024-01-30T03:25:27;10.70;69.30
28763;DHT22;15918;51.270;6.522;2024-01-30T03:27:52;10.70;69.20
28763;DHT22;15918;51.270;6.522;2024-01-30T03:30:18;10.70;69.20
28763;DHT22;15918;51.270;6.522;2024-01-30T03:32:43;10.70;69.20
28763;DHT22;15918;51.270;6.522;2024-01-30T03:35:09;10.70;69.30
28763;DHT22;15918;51.270;6.522;2024-01-30T03:37:35;10.70;69.30
28763;DHT22;15918;51.270;6.522;2024-01-30T03:40:02;10.70;69.30
28763;DHT22;15918;51.270;6.522;2024-01-30T03:42:28;10.70;69.30
28763;DHT22;15918;51.270;6.522;2024-01-30T03:44:53;10.70;69.30
28763;DHT22;15918;51.270;6.522;2024-01-30T03:47:20;10.70;69.30
28763;DHT22;15918;51.270;6.522;2024-01-30T03:49:46;10.70;69.30
28763;DHT22;15918;51.270;6.522;2024-01-30T03:52:12;10.70;69.30
28763;DHT22;15918;51.270;6.522;2024-01-30T03:54:37;10.70;69.20
28763;DHT22;15918;51.270;6.522;2024-01-30T03:57:03;10.70;69.30
28763;DHT22;15918;51.270;6.522;2024-01-30T03:59:29;10.70;69.20
28763;DHT22;15918;51.270;6.522;2024-01-30T04:01:55;10.70;69.30
28763;DHT22;15918;51.270;6.522;2024-01-30T04:04:20;10.80;69.30
28763;DHT22;15918;51.270;6.522;2024-01-30T04:06:46;10.70;69.30
28763;DHT22;15918;51.270;6.522;2024-01-30T04:09:13;10.70;69.20
28763;DHT22;15918;51.270;6.522;2024-01-30T04:11:39;10.70;69.20
28763;DHT22;15918;51.270;6.522;2024-01-30T04:14:05;10.70;69.20
28763;DHT22;15918;51.270;6.522;2024-01-30T04:16:31;10.70;69.20
28763;DHT22;15918;51.270;6.522;2024-01-30T04:18:57;10.70;69.20
28763;DHT22;15918;51.270;6.522;2024-01-30T04:21:23;10.70;69.30
28763;DHT22;15918;51.270;6.522;2024-01-30T04:23:48;10.80;69.30
28763;DHT22;15918;51.270;6.522;2024-01-30T04:26:14;10.70;69.20
28763;DHT22;15918;51.270;6.522;2024-01-30T04:28:46;10.70;69.30
28763;DHT22;15918;51.270;6.522;2024-01-30T04:31:12;10.70;69.20
28763;DHT22;15918;51.270;6.522;2024-01-30T04:33:38;10.60;69.30
28763;DHT22;15918;51.270;6.522;2024-01-30T04:36:04;10.60;69.30
28763;DHT22;15918;51.270;6.522;2024-01-30T04:38:31;10.70;69.30
28763;DHT22;15918;51.270;6.522;2024-01-30T04:40:56;10.70;69.50
28763;DHT22;15918;51.270;6.522;2024-01-30T04:43:22;10.60;69.40
28763;DHT22;15918;51.270;6.522;2024-01-30T04:45:48;10.60;69.30
28763;DHT22;15918;51.270;6.522;2024-01-30T04:48:14;10.60;69.20
28763;DHT22;15918;51.270;6.522;2024-01-30T04:50:39;10.60;69.20
28763;DHT22;15918;51.270;6.522;2024-01-30T04:53:05;10.70;69.30
28763;DHT22;15918;51.270;6.522;2024-01-30T04:55:30;10.60;69.20
28763;DHT22;15918;51.270;6.522;2024-01-30T04:57:56;10.70;69.30
28763;DHT22;15918;51.270;6.522;2024-01-30T05:00:22;10.60;69.30
28763;DHT22;15918;51.270;6.522;2024-01-30T05:02:47;10.60;69.20
28763;DHT22;15918;51.270;6.522;2024-01-30T05:05:13;10.60;69.30
28763;DHT22;15918;51.270;6.522;2024-01-30T05:07:40;10.60;69.20
28763;DHT22;15918;51.270;6.522;2024-01-30T05:10:06;10.60;69.30
28763;DHT22;15918;51.270;6.522;2024-01-30T05:12:31;10.70;69.30
28763;DHT22;15918;51.270;6.522;2024-01-30T05:14:57;10.60;69.30
28763;DHT22;15918;51.270;6.522;2024-01-30T05:17:23;10.60;69.40
28763;DHT22;15918;51.270;6.522;2024-01-30T05:19:48;10.60;69.40
28763;DHT22;15918;51.270;6.522;2024-01-30T05:22:14;10.60;69.40
28763;DHT22;15918;51.270;6.522;2024-01-30T05:24:41;10.60;69.40
28763;DHT22;15918;51.270;6.522;2024-01-30T05:27:09;10.60;69.40
28763;DHT22;15918;51.270;6.522;2024-01-30T05:29:35;10.60;69.30
28763;DHT22;15918;51.270;6.522;2024-01-30T05:32:01;10.60;69.30
28763;DHT22;15918;51.270;6.522;2024-01-30T05:34:27;10.60;69.40
28763;DHT22;15918;51.270;6.522;2024-01-30T05:36:52;10.60;69.50
28763;DHT22;15918;51.270;6.522;2024-01-30T05:39:18;10.60;69.40
28763;DHT22;15918;51.270;6.522;2024-01-30T05:41:43;10.60;69.30
28763;DHT22;15918;51.270;6.522;2024-01-30T05:44:09;10.60;69.30
28763;DHT22;15918;51.270;6.522;2024-01-30T05:46:35;10.60;69.20
28763;DHT22;15918;51.270;6.522;2024-01-30T05:49:01;10.60;69.20
28763;DHT22;15918;51.270;6.522;2024-01-30T05:51:26;10.60;69.20
28763;DHT22;15918;51.270;6.522;2024-01-30T05:53:53;10.60;69.40
28763;DHT22;15918;51.270;6.522;2024-01-30T05:56:19;10.60;69.40
28763;DHT22;15918;51.270;6.522;2024-01-30T05:58:45;10.60;69.40
28763;DHT22;15918;51.270;6.522;2024-01-30T06:01:11;10.60;69.20
28763;DHT22;15918;51.270;6.522;2024-01-30T06:03:36;10.50;69.30
28763;DHT22;15918;51.270;6.522;2024-01-30T06:06:02;10.60;69.30
28763;DHT22;15918;51.270;6.522;2024-01-30T06:08:28;10.60;69.40
28763;DHT22;15918;51.270;6.522;2024-01-30T06:10:54;10.60;69.30
28763;DHT22;15918;51.270;6.522;2024-01-30T06:13:19;10.60;69.40
28763;DHT22;15918;51.270;6.522;2024-01-30T06:15:45;10.60;69.30
28763;DHT22;15918;51.270;6.522;2024-01-30T06:18:11;10.50;69.40
28763;DHT22;15918;51.270;6.522;2024-01-30T06:20:36;10.60;69.50
28763;DHT22;15918;51.270;6.522;2024-01-30T06:23:02;10.50;69.40
28763;DHT22;15918;51.270;6.522;2024-01-30T06:25:28;10.60;69.40
28763;DHT22;15918;51.270;6.522;2024-01-30T06:27:53;10.60;69.60
28763;DHT22;15918;51.270;6.522;2024-01-30T06:30:19;10.60;69.50
28763;DHT22;15918;51.270;6.522;2024-01-30T06:32:45;10.60;69.40
28763;DHT22;15918;51.270;6.522;2024-01-30T06:35:10;10.60;69.40
28763;DHT22;15918;51.270;6.522;2024-01-30T06:37:36;10.50;69.40
28763;DHT22;15918;51.270;6.522;2024-01-30T06:40:02;10.50;69.40
28763;DHT22;15918;51.270;6.522;2024-01-30T06:42:30;10.60;69.60
28763;DHT22;15918;51.270;6.522;2024-01-30T06:44:55;10.50;69.60
28763;DHT22;15918;51.270;6.522;2024-01-30T06:47:21;10.60;69.60
28763;DHT22;15918;51.270;6.522;2024-01-30T06:49:47;10.60;69.60
28763;DHT22;15918;51.270;6.522;2024-01-30T06:52:12;10.50;69.60
28763;DHT22;15918;51.270;6.522;2024-01-30T06:54:38;10.60;69.60
28763;DHT22;15918;51.270;6.522;2024-01-30T06:57:05;10.60;69.80
28763;DHT22;15918;51.270;6.522;2024-01-30T06:59:34;10.60;69.70
28763;DHT22;15918;51.270;6.522;2024-01-30T07:02:00;10.60;69.60
28763;DHT22;15918;51.270;6.522;2024-01-30T07:04:25;10.50;69.50
28763;DHT22;15918;51.270;6.522;2024-01-30T07:06:51;10.60;70.50
28763;DHT22;15918;51.270;6.522;2024-01-30T07:09:18;10.60;69.90
28763;DHT22;15918;51.270;6.522;2024-01-30T07:11:44;10.50;69.90
28763;DHT22;15918;51.270;6.522;2024-01-30T07:14:10;10.50;69.80
28763;DHT22;15918;51.270;6.522;2024-01-30T07:16:36;10.50;69.80
28763;DHT22;15918;51.270;6.522;2024-01-30T07:19:01;10.50;69.80
28763;DHT22;15918;51.270;6.522;2024-01-30T07:21:27;10.50;70.00
28763;DHT22;15918;51.270;6.522;2024-01-30T07:23:57;10.60;70.00
28763;DHT22;15918;51.270;6.522;2024-01-30T07:26:22;10.50;69.80
28763;DHT22;15918;51.270;6.522;2024-01-30T07:28:48;10.50;69.80
28763;DHT22;15918;51.270;6.522;2024-01-30T07:31:14;10.50;69.90
28763;DHT22;15918;51.270;6.522;2024-01-30T07:33:39;10.60;69.90
28763;DHT22;15918;51.270;6.522;2024-01-30T07:36:05;10.50;69.80
28763;DHT22;15918;51.270;6.522;2024-01-30T07:38:34;10.50;69.80
28763;DHT22;15918;51.270;6.522;2024-01-30T07:41:00;10.50;69.80
28763;DHT22;15918;51.270;6.522;2024-01-30T07:43:25;10.50;69.80
28763;DHT22;15918;51.270;6.522;2024-01-30T07:45:51;10.50;69.90
28763;DHT22;15918;51.270;6.522;2024-01-30T07:48:16;10.50;70.00
28763;DHT22;15918;51.270;6.522;2024-01-30T07:50:42;10.50;70.00
28763;DHT22;15918;51.270;6.522;2024-01-30T07:53:08;10.50;70.00
28763;DHT22;15918;51.270;6.522;2024-01-30T07:55:33;10.50;70.10
28763;DHT22;15918;51.270;6.522;2024-01-30T07:57:59;10.50;70.00
28763;DHT22;15918;51.270;6.522;2024-01-30T08:00:26;10.50;70.00
28763;DHT22;15918;51.270;6.522;2024-01-30T08:02:51;10.60;70.00
28763;DHT22;15918;51.270;6.522;2024-01-30T08:05:19;10.50;69.90
28763;DHT22;15918;51.270;6.522;2024-01-30T08:07:47;10.50;70.00
28763;DHT22;15918;51.270;6.522;2024-01-30T08:10:13;10.50;70.00
28763;DHT22;15918;51.270;6.522;2024-01-30T08:12:39;10.50;69.90
28763;DHT22;15918;51.270;6.522;2024-01-30T08:15:05;10.60;70.20
28763;DHT22;15918;51.270;6.522;2024-01-30T08:17:31;10.50;70.10
28763;DHT22;15918;51.270;6.522;2024-01-30T08:19:57;10.60;70.20
28763;DHT22;15918;51.270;6.522;2024-01-30T08:22:22;10.50;70.00
28763;DHT22;15918;51.270;6.522;2024-01-30T08:24:48;10.50;70.20
28763;DHT22;15918;51.270;6.522;2024-01-30T08:27:13;10.60;70.20
28763;DHT22;15918;51.270;6.522;2024-01-30T08:29:39;10.50;70.20
28763;DHT22;15918;51.270;6.522;2024-01-30T08:32:05;10.50;70.30
28763;DHT22;15918;51.270;6.522;2024-01-30T08:34:31;10.60;70.30
28763;DHT22;15918;51.270;6.522;2024-01-30T08:36:57;10.60;70.30
28763;DHT22;15918;51.270;6.522;2024-01-30T08:39:23;10.60;70.30
28763;DHT22;15918;51.270;6.522;2024-01-30T08:41:48;10.60;70.30
28763;DHT22;15918;51.270;6.522;2024-01-30T08:44:14;10.60;70.40
28763;DHT22;15918;51.270;6.522;2024-01-30T08:46:39;10.60;70.30
28763;DHT22;15918;51.270;6.522;2024-01-30T08:49:05;10.60;70.30
28763;DHT22;15918;51.270;6.522;2024-01-30T08:51:30;10.60;70.30
28763;DHT22;15918;51.270;6.522;2024-01-30T08:53:56;10.60;70.20
28763;DHT22;15918;51.270;6.522;2024-01-30T08:56:22;10.60;70.20
28763;DHT22;15918;51.270;6.522;2024-01-30T08:58:48;10.60;70.20
28763;DHT22;15918;51.270;6.522;2024-01-30T09:01:14;10.60;70.30
28763;DHT22;15918;51.270;6.522;2024-01-30T09:03:39;10.60;70.30
28763;DHT22;15918;51.270;6.522;2024-01-30T09:06:10;10.60;70.30
28763;DHT22;15918;51.270;6.522;2024-01-30T09:08:35;10.60;70.40
28763;DHT22;15918;51.270;6.522;2024-01-30T09:11:12;10.60;70.50
28763;DHT22;15918;51.270;6.522;2024-01-30T09:13:38;10.60;70.40
28763;DHT22;15918;51.270;6.522;2024-01-30T09:16:04;10.60;70.50
28763;DHT22;15918;51.270;6.522;2024-01-30T09:18:29;10.60;70.60
28763;DHT22;15918;51.270;6.522;2024-01-30T09:20:55;10.60;70.50
28763;DHT22;15918;51.270;6.522;2024-01-30T09:23:21;10.60;70.50
28763;DHT22;15918;51.270;6.522;2024-01-30T09:25:47;10.60;70.60
28763;DHT22;15918;51.270;6.522;2024-01-30T09:28:12;10.60;70.60
28763;DHT22;15918;51.270;6.522;2024-01-30T09:30:38;10.60;70.60
28763;DHT22;15918;51.270;6.522;2024-01-30T09:33:04;10.60;70.80
28763;DHT22;15918;51.270;6.522;2024-01-30T09:35:30;10.60;70.80
28763;DHT22;15918;51.270;6.522;2024-01-30T09:37:56;10.60;70.70
28763;DHT22;15918;51.270;6.522;2024-01-30T09:40:22;10.70;70.80
28763;DHT22;15918;51.270;6.522;2024-01-30T09:42:50;10.70;70.80
28763;DHT22;15918;51.270;6.522;2024-01-30T09:45:17;10.70;70.80
28763;DHT22;15918;51.270;6.522;2024-01-30T09:47:44;10.70;71.00
28763;DHT22;15918;51.270;6.522;2024-01-30T09:50:11;10.70;70.90
28763;DHT22;15918;51.270;6.522;2024-01-30T09:52:37;10.70;71.00
28763;DHT22;15918;51.270;6.522;2024-01-30T09:55:04;10.70;71.00
28763;DHT22;15918;51.270;6.522;2024-01-30T09:57:29;10.70;71.10
28763;DHT22;15918;51.270;6.522;2024-01-30T09:59:55;10.70;71.80
28763;DHT22;15918;51.270;6.522;2024-01-30T10:02:21;10.70;70.90
28763;DHT22;15918;51.270;6.522;2024-01-30T10:04:51;10.70;70.90
28763;DHT22;15918;51.270;6.522;2024-01-30T10:07:18;10.80;71.00
28763;DHT22;15918;51.270;6.522;2024-01-30T10:09:44;10.80;71.10
28763;DHT22;15918;51.270;6.522;2024-01-30T10:12:09;10.80;71.20
28763;DHT22;15918;51.270;6.522;2024-01-30T10:14:39;10.80;71.10
28763;DHT22;15918;51.270;6.522;2024-01-30T10:17:05;10.80;71.10
28763;DHT22;15918;51.270;6.522;2024-01-30T10:19:31;10.80;72.00
28763;DHT22;15918;51.270;6.522;2024-01-30T10:21:57;10.80;71.40
28763;DHT22;15918;51.270;6.522;2024-01-30T10:24:25;10.80;71.40
28763;DHT22;15918;51.270;6.522;2024-01-30T10:26:51;10.80;71.50
28763;DHT22;15918;51.270;6.522;2024-01-30T10:29:17;10.80;72.20
28763;DHT22;15918;51.270;6.522;2024-01-30T10:31:43;10.90;71.50
28763;DHT22;15918;51.270;6.522;2024-01-30T10:34:08;10.80;71.40
28763;DHT22;15918;51.270;6.522;2024-01-30T10:36:39;10.80;71.40
28763;DHT22;15918;51.270;6.522;2024-01-30T10:39:07;11.00;71.60
28763;DHT22;15918;51.270;6.522;2024-01-30T10:41:42;10.80;71.40
28763;DHT22;15918;51.270;6.522;2024-01-30T10:44:09;10.90;71.50
28763;DHT22;15918;51.270;6.522;2024-01-30T10:46:37;10.90;71.60
28763;DHT22;15918;51.270;6.522;2024-01-30T10:49:04;10.90;71.60
28763;DHT22;15918;51.270;6.522;2024-01-30T10:51:32;10.90;71.50
28763;DHT22;15918;51.270;6.522;2024-01-30T10:53:57;10.90;71.40
28763;DHT22;15918;51.270;6.522;2024-01-30T10:56:25;10.90;71.40
28763;DHT22;15918;51.270;6.522;2024-01-30T10:58:52;10.90;71.40
28763;DHT22;15918;51.270;6.522;2024-01-30T11:01:22;11.00;71.50
28763;DHT22;15918;51.270;6.522;2024-01-30T11:03:51;11.00;71.40
28763;DHT22;15918;51.270;6.522;2024-01-30T11:06:17;11.00;71.40
28763;DHT22;15918;51.270;6.522;2024-01-30T11:08:46;11.00;71.50
28763;DHT22;15918;51.270;6.522;2024-01-30T11:11:11;11.00;71.50
28763;DHT22;15918;51.270;6.522;2024-01-30T11:13:37;11.00;71.50
28763;DHT22;15918;51.270;6.522;2024-01-30T11:16:06;11.00;71.50
28763;DHT22;15918;51.270;6.522;2024-01-30T11:18:33;11.00;71.60
28763;DHT22;15918;51.270;6.522;2024-01-30T11:21:01;11.10;71.70
28763;DHT22;15918;51.270;6.522;2024-01-30T11:23:28;11.10;71.60
28763;DHT22;15918;51.270;6.522;2024-01-30T11:25:54;11.10;71.60
28763;DHT22;15918;51.270;6.522;2024-01-30T11:28:21;11.10;71.50
28763;DHT22;15918;51.270;6.522;2024-01-30T11:30:47;11.10;71.50
28763;DHT22;15918;51.270;6.522;2024-01-30T11:33:29;11.10;71.70
28763;DHT22;15918;51.270;6.522;2024-01-30T11:35:57;11.10;71.50
28763;DHT22;15918;51.270;6.522;2024-01-30T11:38:23;11.10;71.80
28763;DHT22;15918;51.270;6.522;2024-01-30T11:40:51;11.10;71.70
28763;DHT22;15918;51.270;6.522;2024-01-30T11:43:19;11.20;71.80
28763;DHT22;15918;51.270;6.522;2024-01-30T11:45:45;11.10;71.90
28763;DHT22;15918;51.270;6.522;2024-01-30T11:48:14;11.20;72.10
28763;DHT22;15918;51.270;6.522;2024-01-30T11:50:40;11.20;72.40
28763;DHT22;15918;51.270;6.522;2024-01-30T11:53:10;11.20;72.80
28763;DHT22;15918;51.270;6.522;2024-01-30T11:55:36;11.30;72.80
28763;DHT22;15918;51.270;6.522;2024-01-30T11:58:03;11.30;73.00
28763;DHT22;15918;51.270;6.522;2024-01-30T12:00:30;11.30;73.10
28763;DHT22;15918;51.270;6.522;2024-01-30T12:02:58;11.30;73.20
28763;DHT22;15918;51.270;6.522;2024-01-30T12:05:26;11.30;73.30
28763;DHT22;15918;51.270;6.522;2024-01-30T12:07:52;11.30;73.40
28763;DHT22;15918;51.270;6.522;2024-01-30T12:10:18;11.30;73.70
28763;DHT22;15918;51.270;6.522;2024-01-30T12:12:49;11.40;73.90
28763;DHT22;15918;51.270;6.522;2024-01-30T12:15:16;11.40;73.90
28763;DHT22;15918;51.270;6.522;2024-01-30T12:17:42;11.40;74.30
28763;DHT22;15918;51.270;6.522;2024-01-30T12:20:13;11.40;74.40
28763;DHT22;15918;51.270;6.522;2024-01-30T12:22:40;11.50;74.60
28763;DHT22;15918;51.270;6.522;2024-01-30T12:25:16;11.50;74.80
28763;DHT22;15918;51.270;6.522;2024-01-30T12:27:48;11.50;74.90
28763;DHT22;15918;51.270;6.522;2024-01-30T12:30:20;11.50;75.00
28763;DHT22;15918;51.270;6.522;2024-01-30T12:32:47;11.50;75.20
28763;DHT22;15918;51.270;6.522;2024-01-30T12:35:19;11.50;75.00
28763;DHT22;15918;51.270;6.522;2024-01-30T12:37:46;11.50;75.00
28763;DHT22;15918;51.270;6.522;2024-01-30T12:40:13;11.60;75.10
28763;DHT22;15918;51.270;6.522;2024-01-30T12:42:40;11.60;75.10
28763;DHT22;15918;51.270;6.522;2024-01-30T12:45:08;11.60;75.30
28763;DHT22;15918;51.270;6.522;2024-01-30T12:47:34;11.60;75.20
28763;DHT22;15918;51.270;6.522;2024-01-30T12:50:00;11.60;75.30
28763;DHT22;15918;51.270;6.522;2024-01-30T12:52:26;11.60;75.50
28763;DHT22;15918;51.270;6.522;2024-01-30T12:54:52;11.70;75.50
28763;DHT22;15918;51.270;6.522;2024-01-30T12:57:18;11.70;75.50
28763;DHT22;15918;51.270;6.522;2024-01-30T12:59:44;11.70;75.60
28763;DHT22;15918;51.270;6.522;2024-01-30T13:02:11;11.70;75.60
28763;DHT22;15918;51.270;6.522;2024-01-30T13:04:36;11.70;75.50
28763;DHT22;15918;51.270;6.522;2024-01-30T13:07:02;11.70;75.40
28763;DHT22;15918;51.270;6.522;2024-01-30T13:09:29;11.70;75.40
28763;DHT22;15918;51.270;6.522;2024-01-30T13:11:55;11.80;75.50
28763;DHT22;15918;51.270;6.522;2024-01-30T13:14:20;11.80;75.60
28763;DHT22;15918;51.270;6.522;2024-01-30T13:16:46;11.80;75.80
28763;DHT22;15918;51.270;6.522;2024-01-30T13:19:12;11.80;75.90
28763;DHT22;15918;51.270;6.522;2024-01-30T13:21:38;11.80;75.90
28763;DHT22;15918;51.270;6.522;2024-01-30T13:24:04;11.80;75.70
28763;DHT22;15918;51.270;6.522;2024-01-30T13:26:32;11.80;75.90
28763;DHT22;15918;51.270;6.522;2024-01-30T13:28:57;11.80;75.90
28763;DHT22;15918;51.270;6.522;2024-01-30T13:31:23;11.80;76.10
28763;DHT22;15918;51.270;6.522;2024-01-30T13:33:49;11.90;76.00
28763;DHT22;15918;51.270;6.522;2024-01-30T13:36:14;11.80;76.10
28763;DHT22;15918;51.270;6.522;2024-01-30T13:38:40;11.90;76.20
28763;DHT22;15918;51.270;6.522;2024-01-30T13:41:06;11.90;76.20
28763;DHT22;15918;51.270;6.522;2024-01-30T13:43:32;11.90;76.20
28763;DHT22;15918;51.270;6.522;2024-01-30T13:45:58;11.90;76.20
28763;DHT22;15918;51.270;6.522;2024-01-30T13:48:24;11.90;76.00
28763;DHT22;15918;51.270;6.522;2024-01-30T13:50:50;12.00;76.20
28763;DHT22;15918;51.270;6.522;2024-01-30T13:53:16;11.90;76.20
28763;DHT22;15918;51.270;6.522;2024-01-30T13:55:41;11.90;76.30
28763;DHT22;15918;51.270;6.522;2024-01-30T13:58:07;12.00;76.50
28763;DHT22;15918;51.270;6.522;2024-01-30T14:00:33;12.00;76.60
28763;DHT22;15918;51.270;6.522;2024-01-30T14:02:59;12.00;76.50
28763;DHT22;15918;51.270;6.522;2024-01-30T14:05:26;12.00;76.40
28763;DHT22;15918;51.270;6.522;2024-01-30T14:07:53;12.00;76.40
28763;DHT22;15918;51.270;6.522;2024-01-30T14:10:19;12.00;76.40
28763;DHT22;15918;51.270;6.522;2024-01-30T14:12:45;12.10;76.50
28763;DHT22;15918;51.270;6.522;2024-01-30T14:15:11;12.10;76.40
28763;DHT22;15918;51.270;6.522;2024-01-30T14:17:38;12.10;76.30
28763;DHT22;15918;51.270;6.522;2024-01-30T14:20:04;12.10;76.30
28763;DHT22;15918;51.270;6.522;2024-01-30T14:22:30;12.10;76.40
28763;DHT22;15918;51.270;6.522;2024-01-30T14:24:56;12.20;76.40
28763;DHT22;15918;51.270;6.522;2024-01-30T14:27:22;12.10;76.30
28763;DHT22;15918;51.270;6.522;2024-01-30T14:29:48;12.20;76.30
28763;DHT22;15918;51.270;6.522;2024-01-30T14:32:13;12.20;76.20
28763;DHT22;15918;51.270;6.522;2024-01-30T14:34:39;12.20;76.00
28763;DHT22;15918;51.270;6.522;2024-01-30T14:37:05;12.20;75.90
28763;DHT22;15918;51.270;6.522;2024-01-30T14:39:30;12.20;75.80
28763;DHT22;15918;51.270;6.522;2024-01-30T14:41:57;12.20;75.60
28763;DHT22;15918;51.270;6.522;2024-01-30T14:44:22;12.20;75.50
28763;DHT22;15918;51.270;6.522;2024-01-30T14:46:49;12.20;75.40
28763;DHT22;15918;51.270;6.522;2024-01-30T14:49:15;12.20;75.30
28763;DHT22;15918;51.270;6.522;2024-01-30T14:51:41;12.20;74.90
28763;DHT22;15918;51.270;6.522;2024-01-30T14:54:07;12.20;74.70
28763;DHT22;15918;51.270;6.522;2024-01-30T14:56:33;12.20;74.50
28763;DHT22;15918;51.270;6.522;2024-01-30T14:58:59;12.20;74.40
28763;DHT22;15918;51.270;6.522;2024-01-30T15:01:25;12.20;74.20
28763;DHT22;15918;51.270;6.522;2024-01-30T15:03:50;12.20;74.00
28763;DHT22;15918;51.270;6.522;2024-01-30T15:06:21;12.20;73.70
28763;DHT22;15918;51.270;6.522;2024-01-30T15:08:49;12.20;73.60
28763;DHT22;15918;51.270;6.522;2024-01-30T15:11:15;12.20;73.40
28763;DHT22;15918;51.270;6.522;2024-01-30T15:13:41;12.20;73.10
28763;DHT22;15918;51.270;6.522;2024-01-30T15:16:06;12.20;72.90
28763;DHT22;15918;51.270;6.522;2024-01-30T15:18:32;12.20;72.70
28763;DHT22;15918;51.270;6.522;2024-01-30T15:20:58;12.20;72.60
28763;DHT22;15918;51.270;6.522;2024-01-30T15:23:24;12.20;72.40